Time;durP1;ratioP1;P1;durP2;ratioP2;P2;SDS_P1;SDS_P2;PMS_P1;PMS_P2;Temp;Humidity;BMP_temperature;BMP_pressure;BME280_temperature;BME280_humidity;BME280_pressure;Samples;Min_cycle;Max_cycle;Signal;HPM_P1;HPM_P2
2023/05/06 00:02:45;;;;;;;;;;;;;;;13.62;83.06;100710.03;4955256;28;19925;-71
2023/05/06 00:05:49;;;;;;;;;;;;;;;13.47;83.53;100717.94;4955182;28;19926;-71
2023/05/06 00:08:52;;;;;;;;;;;;;;;13.45;83.76;100713.72;4955052;28;19926;-71
2023/05/06 00:11:55;;;;;;;;;;;;;;;13.47;83.51;100711.84;4955236;29;20421;-71
2023/05/06 00:14:58;;;;;;;;;;;;;;;13.43;83.15;100699.81;4954831;28;19924;-71
2023/05/06 00:18:01;;;;;;;;;;;;;;;13.43;82.87;100711.19;4955383;28;20377;-71
2023/05/06 00:21:04;;;;;;;;;;;;;;;13.34;83.56;100705.66;4954728;28;20333;-71
2023/05/06 00:24:07;;;;;;;;;;;;;;;13.34;83.62;100700.41;4955051;28;19926;-71
2023/05/06 00:27:10;;;;;;;;;;;;;;;13.24;83.94;100700.97;4954635;28;20000;-71
2023/05/06 00:30:13;;;;;;;;;;;;;;;13.15;84.23;100693.59;4954992;29;19972;-71
2023/05/06 00:33:16;;;;;;;;;;;;;;;13.07;84.36;100698.44;4954963;28;19925;-71
2023/05/06 00:36:19;;;;;;;;;;;;;;;13.04;84.50;100696.00;4942830;28;19972;-71
2023/05/06 00:39:23;;;;;;;;;;;;;;;12.96;84.86;100695.63;4954724;28;20068;-71
2023/05/06 00:42:26;;;;;;;;;;;;;;;12.97;85.26;100692.06;4954833;28;19926;-71
2023/05/06 00:45:29;;;;;;;;;;;;;;;12.98;85.18;100694.59;4953912;28;19941;-71
2023/05/06 00:48:32;;;;;;;;;;;;;;;12.93;84.83;100695.81;4954813;28;19929;-71
2023/05/06 00:51:35;;;;;;;;;;;;;;;12.84;85.26;100701.59;4954992;28;20294;-71
2023/05/06 00:54:38;;;;;;;;;;;;;;;12.85;85.49;100700.66;4942873;28;19925;-71
2023/05/06 00:57:42;;;;;;;;;;;;;;;12.89;84.19;100699.53;4954611;28;20030;-71
2023/05/06 01:00:47;;;;;;;;;;;;;;;12.87;83.88;100693.56;4942674;29;19964;-71
2023/05/06 01:03:55;;;;;;;;;;;;;;;12.70;84.53;100694.53;4942609;28;19925;-71
2023/05/06 01:07:04;;;;;;;;;;;;;;;12.61;84.90;100689.84;4941600;28;19946;-71
2023/05/06 01:10:26;;;;;;;;;;;;;;;12.55;85.15;100680.53;4954442;28;19944;-71
2023/05/06 01:13:41;;;;;;;;;;;;;;;12.47;85.31;100682.75;4942455;28;19926;-71
2023/05/06 01:16:46;;;;;;;;;;;;;;;12.43;85.06;100682.09;4954377;28;19971;-71
2023/05/06 01:19:52;;;;;;;;;;;;;;;12.40;85.13;100681.41;4954324;28;19926;-70
2023/05/06 01:22:55;;;;;;;;;;;;;;;12.30;85.40;100681.94;4942141;29;20053;-70
2023/05/06 01:26:00;;;;;;;;;;;;;;;12.25;85.94;100681.38;4941375;28;20333;-71
2023/05/06 01:29:03;;;;;;;;;;;;;;;12.39;84.95;100687.59;4942216;28;19925;-71
2023/05/06 01:32:12;;;;;;;;;;;;;;;12.38;85.03;100680.66;4953979;28;19929;-71
2023/05/06 01:35:30;;;;;;;;;;;;;;;12.27;84.85;100676.88;4953366;29;19989;-71
2023/05/06 01:38:38;;;;;;;;;;;;;;;12.18;84.99;100676.53;4941393;28;19964;-71
2023/05/06 01:41:42;;;;;;;;;;;;;;;12.07;85.77;100680.63;4953636;29;19944;-70
2023/05/06 01:44:47;;;;;;;;;;;;;;;12.02;85.39;100674.78;4954032;29;19925;-70
2023/05/06 01:47:51;;;;;;;;;;;;;;;11.97;85.45;100678.63;4952193;28;19945;-71
2023/05/06 01:50:54;;;;;;;;;;;;;;;11.97;85.22;100681.25;4941003;28;19999;-71
2023/05/06 01:53:57;;;;;;;;;;;;;;;12.00;85.17;100686.31;4941037;29;19981;-70
2023/05/06 01:57:01;;;;;;;;;;;;;;;11.96;84.58;100692.63;4952783;28;19941;-71
2023/05/06 02:00:04;;;;;;;;;;;;;;;11.86;85.37;100693.13;4940959;29;20322;-70
2023/05/06 02:03:15;;;;;;;;;;;;;;;11.78;85.76;100691.84;4950906;28;20337;-70
2023/05/06 02:06:18;;;;;;;;;;;;;;;11.79;85.74;100702.22;4953010;28;20333;-70
2023/05/06 02:09:21;;;;;;;;;;;;;;;11.76;85.37;100701.56;4952593;28;20406;-70
2023/05/06 02:12:30;;;;;;;;;;;;;;;11.66;85.49;100701.22;4952297;28;19930;-71
2023/05/06 02:15:34;;;;;;;;;;;;;;;11.68;85.03;100708.97;4941464;29;20410;-71
2023/05/06 02:18:38;;;;;;;;;;;;;;;11.58;85.76;100703.38;4998422;28;19925;-71
2023/05/06 02:21:40;;;;;;;;;;;;;;;11.71;85.09;100707.06;4940467;28;20355;-71
2023/05/06 02:24:44;;;;;;;;;;;;;;;11.58;84.69;100708.63;4938487;28;20282;-71
2023/05/06 02:27:49;;;;;;;;;;;;;;;11.44;85.12;100711.13;4941226;28;20337;-71
2023/05/06 02:30:56;;;;;;;;;;;;;;;11.50;84.96;100705.56;4941086;28;20402;-71
2023/05/06 02:33:59;;;;;;;;;;;;;;;11.37;84.96;100711.47;4953183;28;20064;-71
2023/05/06 02:37:02;;;;;;;;;;;;;;;11.36;84.61;100716.78;4952832;28;19972;-72
2023/05/06 02:40:06;;;;;;;;;;;;;;;11.41;84.75;100726.06;4941594;29;19926;-72
2023/05/06 02:43:09;;;;;;;;;;;;;;;11.24;84.72;100731.34;4953017;29;20381;-72
2023/05/06 02:46:31;;;;;;;;;;;;;;;11.05;85.05;100731.44;4943668;28;19937;-71
2023/05/06 02:49:53;;;;;;;;;;;;;;;11.13;85.17;100723.19;4952913;28;19925;-71
2023/05/06 02:52:56;;;;;;;;;;;;;;;11.09;85.28;100721.66;4940987;29;19984;-71
2023/05/06 02:55:59;;;;;;;;;;;;;;;11.11;85.07;100717.22;4952825;28;19925;-72
2023/05/06 02:59:02;;;;;;;;;;;;;;;11.03;85.22;100711.50;4940369;28;19925;-72
2023/05/06 03:02:05;;;;;;;;;;;;;;;11.04;85.18;100706.22;4940888;29;19929;-72
2023/05/06 03:05:08;;;;;;;;;;;;;;;10.94;85.44;100713.69;4940841;29;20009;-71
2023/05/06 03:08:11;;;;;;;;;;;;;;;10.91;85.38;100716.47;4951943;28;20396;-71
2023/05/06 03:11:15;;;;;;;;;;;;;;;10.88;85.51;100714.00;4952651;28;20017;-72
2023/05/06 03:14:18;;;;;;;;;;;;;;;10.90;85.57;100719.97;4940735;29;19929;-71
2023/05/06 03:17:22;;;;;;;;;;;;;;;10.84;85.44;100720.28;4941068;28;19925;-71
2023/05/06 03:20:27;;;;;;;;;;;;;;;10.80;85.63;100726.59;4940726;29;19941;-71
2023/05/06 03:23:32;;;;;;;;;;;;;;;10.80;85.65;100718.75;4940514;28;19958;-71
2023/05/06 03:26:36;;;;;;;;;;;;;;;10.87;85.71;100722.75;4932511;29;19930;-72
2023/05/06 03:29:40;;;;;;;;;;;;;;;10.81;85.84;100722.22;4943597;29;19926;-71
2023/05/06 03:32:46;;;;;;;;;;;;;;;10.71;86.17;100725.28;4932359;29;19925;-72
2023/05/06 03:35:52;;;;;;;;;;;;;;;10.69;86.44;100723.69;4932516;29;19926;-72
2023/05/06 03:38:55;;;;;;;;;;;;;;;10.73;86.68;100724.38;4932163;29;19926;-71
2023/05/06 03:41:59;;;;;;;;;;;;;;;10.79;86.45;100724.91;4943466;28;19926;-71
2023/05/06 03:45:04;;;;;;;;;;;;;;;10.85;86.47;100727.22;4943218;28;19925;-71
2023/05/06 03:48:08;;;;;;;;;;;;;;;10.83;86.91;100730.84;4932306;29;20286;-72
2023/05/06 03:51:16;;;;;;;;;;;;;;;10.91;86.35;100729.53;4932618;29;19929;-71
2023/05/06 03:54:19;;;;;;;;;;;;;;;11.01;85.74;100727.31;4943573;28;19926;-71
2023/05/06 03:57:23;;;;;;;;;;;;;;;10.90;86.16;100730.44;4943193;28;19980;-72
2023/05/06 04:00:27;;;;;;;;;;;;;;;10.93;86.67;100729.44;4943199;28;19926;-71
2023/05/06 04:03:31;;;;;;;;;;;;;;;10.96;86.41;100725.84;4943184;28;20064;-72
2023/05/06 04:06:34;;;;;;;;;;;;;;;10.94;86.26;100726.78;4932010;29;19934;-70
2023/05/06 04:09:38;;;;;;;;;;;;;;;10.89;86.52;100731.38;4943129;28;19925;-72
2023/05/06 04:12:44;;;;;;;;;;;;;;;10.87;87.04;100727.97;4931898;29;20433;-71
2023/05/06 04:15:49;;;;;;;;;;;;;;;10.95;86.82;100730.22;4931998;29;20287;-71
2023/05/06 04:18:57;;;;;;;;;;;;;;;11.00;86.62;100728.22;4931801;29;20410;-70
2023/05/06 04:22:01;;;;;;;;;;;;;;;11.01;86.48;100734.28;4942855;28;19926;-71
2023/05/06 04:25:04;;;;;;;;;;;;;;;10.96;87.01;100731.06;4932505;28;19925;-73
2023/05/06 04:28:10;;;;;;;;;;;;;;;10.97;87.24;100727.53;4950675;28;19980;-70
2023/05/06 04:31:13;;;;;;;;;;;;;;;10.91;87.30;100734.78;4939799;28;20019;-70
2023/05/06 04:34:20;;;;;;;;;;;;;;;10.84;88.25;100735.97;4939026;28;20396;-70
2023/05/06 04:37:24;;;;;;;;;;;;;;;10.81;88.43;100741.38;4937576;28;20296;-70
2023/05/06 04:40:34;;;;;;;;;;;;;;;10.74;90.09;100747.00;4939733;29;19950;-69
2023/05/06 04:43:37;;;;;;;;;;;;;;;10.67;90.83;100754.28;4941887;28;20336;-68
2023/05/06 04:46:47;;;;;;;;;;;;;;;10.67;91.23;100747.28;4941895;28;20302;-70
2023/05/06 04:49:52;;;;;;;;;;;;;;;10.73;90.29;100751.38;4952892;28;19929;-71
2023/05/06 04:52:56;;;;;;;;;;;;;;;10.70;90.08;100751.53;4941591;28;19925;-70
2023/05/06 04:55:59;;;;;;;;;;;;;;;10.66;90.34;100755.22;4941615;28;19925;-71
2023/05/06 04:59:03;;;;;;;;;;;;;;;10.83;89.76;100752.59;4942470;29;19925;-71
2023/05/06 05:02:06;;;;;;;;;;;;;;;10.85;89.46;100755.16;4942285;28;19933;-71
2023/05/06 05:05:09;;;;;;;;;;;;;;;10.85;89.56;100756.00;4954198;28;19987;-70
2023/05/06 05:08:13;;;;;;;;;;;;;;;10.75;90.07;100759.13;4942830;28;20421;-69
2023/05/06 05:11:17;;;;;;;;;;;;;;;10.23;91.38;100772.91;4942074;28;19928;-71
2023/05/06 05:14:23;;;;;;;;;;;;;;;10.51;91.28;100766.41;4931521;28;19925;-71
2023/05/06 05:17:29;;;;;;;;;;;;;;;10.73;90.19;100767.06;4954575;28;19972;-71
2023/05/06 05:20:33;;;;;;;;;;;;;;;10.63;90.22;100773.69;4942181;28;19972;-71
2023/05/06 05:23:38;;;;;;;;;;;;;;;10.73;90.31;100768.84;4942022;28;19976;-71
2023/05/06 05:26:41;;;;;;;;;;;;;;;10.86;89.70;100769.94;4953868;28;19929;-70
2023/05/06 05:29:45;;;;;;;;;;;;;;;10.85;89.49;100771.69;4953861;28;20009;-71
2023/05/06 05:32:48;;;;;;;;;;;;;;;10.90;89.43;100771.47;4954226;28;20424;-71
2023/05/06 05:35:52;;;;;;;;;;;;;;;10.96;89.83;100783.41;4942281;28;19925;-71
2023/05/06 05:38:56;;;;;;;;;;;;;;;11.03;89.27;100779.53;4941670;28;20389;-71
2023/05/06 05:42:02;;;;;;;;;;;;;;;11.03;89.37;100776.94;4942147;28;19934;-71
2023/05/06 05:45:06;;;;;;;;;;;;;;;11.09;89.46;100784.47;4942057;29;20336;-71
2023/05/06 05:48:09;;;;;;;;;;;;;;;11.17;89.12;100777.09;4953751;29;20298;-70
2023/05/06 05:51:13;;;;;;;;;;;;;;;11.29;88.68;100771.22;4942111;28;20436;-72
2023/05/06 05:54:17;;;;;;;;;;;;;;;11.37;88.29;100769.06;4941258;29;19942;-71
2023/05/06 05:57:20;;;;;;;;;;;;;;;11.45;88.04;100771.25;4941570;28;19925;-69
2023/05/06 06:00:24;;;;;;;;;;;;;;;11.55;88.03;100766.38;4951915;28;19995;-71
2023/05/06 06:03:34;;;;;;;;;;;;;;;11.57;88.96;100775.88;4951640;28;20027;-71
2023/05/06 06:07:01;;;;;;;;;;;;;;;11.64;88.38;100771.16;4939871;28;19984;-72
2023/05/06 06:10:33;;;;;;;;;;;;;;;11.68;87.67;100767.47;4952811;28;20389;-71
2023/05/06 06:13:41;;;;;;;;;;;;;;;11.89;86.91;100762.03;4940712;28;19945;-73
2023/05/06 06:16:47;;;;;;;;;;;;;;;12.02;86.13;100773.53;4951079;28;20420;-71
2023/05/06 06:19:50;;;;;;;;;;;;;;;12.15;85.70;100765.84;4940378;29;19930;-74
2023/05/06 06:22:55;;;;;;;;;;;;;;;12.32;85.34;100768.41;4940992;28;19925;-74
2023/05/06 06:26:03;;;;;;;;;;;;;;;12.43;84.77;100770.41;4940909;28;19928;-75
2023/05/06 06:29:06;;;;;;;;;;;;;;;12.46;86.03;100771.06;4952361;28;20053;-73
2023/05/06 06:32:09;;;;;;;;;;;;;;;12.50;85.72;100771.75;4940468;29;19972;-74
2023/05/06 06:35:12;;;;;;;;;;;;;;;12.49;85.83;100768.28;4952535;28;20413;-73
2023/05/06 06:38:15;;;;;;;;;;;;;;;12.52;86.14;100769.91;4950856;28;20052;-73
2023/05/06 06:41:19;;;;;;;;;;;;;;;12.61;85.73;100773.78;4940597;28;20442;-72
2023/05/06 06:44:23;;;;;;;;;;;;;;;12.46;85.39;100776.31;4952560;28;20469;-72
2023/05/06 06:47:25;;;;;;;;;;;;;;;12.53;85.59;100782.06;4951714;28;20060;-72
2023/05/06 06:50:28;;;;;;;;;;;;;;;12.32;86.61;100777.09;4948955;28;19949;-72
2023/05/06 06:53:31;;;;;;;;;;;;;;;12.60;84.81;100775.53;4950047;28;19926;-72
2023/05/06 06:56:34;;;;;;;;;;;;;;;12.61;84.88;100774.63;4939564;28;19929;-72
2023/05/06 06:59:37;;;;;;;;;;;;;;;12.74;84.65;100785.25;4936501;28;19965;-72
2023/05/06 07:02:40;;;;;;;;;;;;;;;13.01;84.33;100769.69;4950135;28;19969;-72
2023/05/06 07:05:44;;;;;;;;;;;;;;;13.14;84.15;100772.44;4949986;28;19987;-71
2023/05/06 07:08:47;;;;;;;;;;;;;;;13.33;84.07;100769.59;4948718;28;19993;-72
2023/05/06 07:11:50;;;;;;;;;;;;;;;13.55;83.37;100771.78;4939064;28;19961;-72
2023/05/06 07:14:54;;;;;;;;;;;;;;;13.78;82.18;100775.63;4938842;28;19933;-72
2023/05/06 07:17:57;;;;;;;;;;;;;;;13.96;80.94;100769.22;4951053;28;20397;-71
2023/05/06 07:21:01;;;;;;;;;;;;;;;14.04;81.50;100768.75;4938805;28;19926;-71
2023/05/06 07:24:45;;;;;;;;;;;;;;;14.15;81.70;100772.41;4951756;28;19979;-73
2023/05/06 07:28:12;;;;;;;;;;;;;;;14.31;80.68;100772.25;5011291;28;20008;-71
2023/05/06 07:31:19;;;;;;;;;;;;;;;14.34;80.59;100766.81;5011479;28;19956;-71
2023/05/06 07:34:23;;;;;;;;;;;;;;;14.37;80.47;100765.78;5011460;28;19925;-71
2023/05/06 07:37:26;;;;;;;;;;;;;;;14.42;79.69;100755.78;5010377;28;19931;-71
2023/05/06 07:40:29;;;;;;;;;;;;;;;14.46;79.27;100762.56;5011525;28;19924;-70
2023/05/06 07:43:32;;;;;;;;;;;;;;;14.45;78.81;100768.75;5012064;28;19924;-73
2023/05/06 07:46:41;;;;;;;;;;;;;;;14.50;78.44;100771.09;5011364;28;19972;-71
2023/05/06 07:49:44;;;;;;;;;;;;;;;14.57;77.77;100765.34;5012097;28;19932;-73
2023/05/06 07:52:48;;;;;;;;;;;;;;;14.71;77.36;100771.50;5012772;28;19971;-72
2023/05/06 07:55:51;;;;;;;;;;;;;;;14.77;76.70;100769.34;5012210;28;20013;-73
2023/05/06 07:58:58;;;;;;;;;;;;;;;14.78;76.04;100772.81;5012481;28;20293;-72
2023/05/06 08:02:01;;;;;;;;;;;;;;;14.89;75.36;100770.28;5012519;28;20009;-72
2023/05/06 08:05:09;;;;;;;;;;;;;;;14.97;74.69;100767.16;5012555;28;20467;-71
2023/05/06 08:08:12;;;;;;;;;;;;;;;14.99;73.98;100768.72;5011406;28;19929;-72
2023/05/06 08:11:17;;;;;;;;;;;;;;;15.08;73.74;100775.16;5011283;28;19923;-72
2023/05/06 08:14:20;;;;;;;;;;;;;;;15.15;73.24;100773.81;5001103;28;20005;-73
2023/05/06 08:17:24;;;;;;;;;;;;;;;15.28;72.37;100769.41;5014438;28;19925;-74
2023/05/06 08:20:29;;;;;;;;;;;;;;;15.35;71.37;100770.69;5014583;28;20038;-75
2023/05/06 08:23:33;;;;;;;;;;;;;;;15.42;70.82;100768.47;5015882;28;19928;-74
2023/05/06 08:26:36;;;;;;;;;;;;;;;15.52;70.51;100772.16;4984746;28;20006;-72
2023/05/06 08:29:39;;;;;;;;;;;;;;;15.61;69.79;100769.84;4954979;28;19991;-73
2023/05/06 08:32:42;;;;;;;;;;;;;;;15.71;69.55;100765.63;4955034;28;19933;-73
2023/05/06 08:35:46;;;;;;;;;;;;;;;15.84;69.05;100776.16;4943444;28;19969;-73
2023/05/06 08:38:49;;;;;;;;;;;;;;;15.93;68.02;100770.25;5001432;28;19926;-73
2023/05/06 08:41:53;;;;;;;;;;;;;;;16.03;67.49;100766.84;4954433;28;20497;-73
2023/05/06 08:49:20;;;;;;;;;;;;;;;16.36;65.77;100762.72;4953614;28;19954;-72
2023/05/06 08:52:23;;;;;;;;;;;;;;;16.59;65.70;100757.56;4954646;28;19929;-72
2023/05/06 08:55:27;;;;;;;;;;;;;;;16.54;64.53;100754.44;4954800;28;19925;-73
2023/05/06 08:58:33;;;;;;;;;;;;;;;16.70;63.52;100752.34;4954504;28;19925;-73
2023/05/06 09:01:36;;;;;;;;;;;;;;;16.72;63.17;100748.63;4942655;28;19924;-73
2023/05/06 09:04:39;;;;;;;;;;;;;;;16.81;63.43;100752.38;4942715;28;20013;-74
2023/05/06 09:07:43;;;;;;;;;;;;;;;16.89;62.87;100750.03;4954375;28;19929;-72
2023/05/06 09:10:46;;;;;;;;;;;;;;;17.00;62.57;100745.72;4954503;28;20353;-72
2023/05/06 09:13:49;;;;;;;;;;;;;;;17.13;61.26;100746.47;4954303;28;19925;-73
2023/05/06 09:16:52;;;;;;;;;;;;;;;17.29;60.75;100741.69;4954388;28;19926;-73
2023/05/06 09:19:56;;;;;;;;;;;;;;;17.43;60.06;100743.28;4954248;28;20367;-72
2023/05/06 09:23:00;;;;;;;;;;;;;;;17.50;59.85;100743.66;4954182;28;19972;-73
2023/05/06 09:26:03;;;;;;;;;;;;;;;17.71;58.62;100746.41;4953835;28;19929;-72
2023/05/06 09:29:07;;;;;;;;;;;;;;;17.81;57.81;100734.19;4953307;28;19976;-72
2023/05/06 09:32:13;;;;;;;;;;;;;;;17.89;57.88;100737.06;4954043;28;19925;-73
2023/05/06 09:35:16;;;;;;;;;;;;;;;17.92;57.16;100734.16;4953854;28;20028;-73
2023/05/06 09:38:20;;;;;;;;;;;;;;;17.87;56.98;100731.91;4953077;28;20009;-73
2023/05/06 09:41:24;;;;;;;;;;;;;;;17.96;56.18;100738.25;4953346;28;20005;-72
2023/05/06 09:44:28;;;;;;;;;;;;;;;18.00;54.96;100730.94;4953899;28;20306;-73
2023/05/06 09:47:33;;;;;;;;;;;;;;;18.10;55.22;100731.88;4954010;28;19988;-73
2023/05/06 09:50:35;;;;;;;;;;;;;;;18.01;55.46;100735.25;4952240;28;20400;-73
2023/05/06 09:53:39;;;;;;;;;;;;;;;18.25;55.30;100716.53;4953839;28;20428;-73
2023/05/06 09:56:46;;;;;;;;;;;;;;;18.42;54.16;100723.13;4953724;28;19930;-73
2023/05/06 09:59:52;;;;;;;;;;;;;;;18.57;53.54;100713.91;4953555;28;19980;-74
2023/05/06 10:02:57;;;;;;;;;;;;;;;18.67;54.06;100714.00;4952877;29;20302;-73
2023/05/06 10:06:01;;;;;;;;;;;;;;;18.65;53.48;100708.81;4953531;28;20386;-74
2023/05/06 10:09:05;;;;;;;;;;;;;;;18.58;52.19;100705.00;4951844;28;19946;-74
2023/05/06 10:12:08;;;;;;;;;;;;;;;18.64;51.52;100707.13;4952669;28;19940;-75
2023/05/06 10:15:11;;;;;;;;;;;;;;;18.65;51.09;100700.84;4949432;28;20452;-75
2023/05/06 10:18:16;;;;;;;;;;;;;;;18.65;50.34;100695.56;4950241;28;19963;-72
2023/05/06 10:21:21;;;;;;;;;;;;;;;18.88;49.61;100698.13;4951510;28;20393;-72
2023/05/06 10:24:29;;;;;;;;;;;;;;;18.99;48.52;100703.38;4951755;28;19925;-72
2023/05/06 10:27:36;;;;;;;;;;;;;;;19.06;49.48;100688.63;4946872;28;20390;-71
2023/05/06 10:30:40;;;;;;;;;;;;;;;19.05;48.74;100681.66;4953132;28;20393;-70
2023/05/06 10:33:47;;;;;;;;;;;;;;;18.92;47.05;100680.97;4952934;28;20298;-71
2023/05/06 10:36:56;;;;;;;;;;;;;;;19.08;47.67;100678.72;4952613;28;19926;-72
2023/05/06 10:39:59;;;;;;;;;;;;;;;19.08;46.91;100676.09;4952947;28;20382;-72
2023/05/06 10:43:32;;;;;;;;;;;;;;;19.05;46.54;100663.09;4953030;28;20420;-71
2023/05/06 10:46:55;;;;;;;;;;;;;;;19.09;47.26;100661.03;4953028;28;19929;-72
2023/05/06 10:50:17;;;;;;;;;;;;;;;19.23;46.34;100658.00;4952941;28;19925;-72
2023/05/06 10:53:40;;;;;;;;;;;;;;;19.24;48.36;100655.22;4952979;28;20290;-72
2023/05/06 10:56:49;;;;;;;;;;;;;;;19.45;49.68;100656.97;4950949;29;20101;-72
2023/05/06 10:59:53;;;;;;;;;;;;;;;19.54;49.04;100656.16;4952926;28;19925;-72
2023/05/06 11:02:59;;;;;;;;;;;;;;;19.68;47.69;100662.94;4953086;28;20018;-72
2023/05/06 11:06:03;;;;;;;;;;;;;;;19.72;46.66;100654.59;4952701;28;20392;-72
2023/05/06 11:09:14;;;;;;;;;;;;;;;20.14;48.09;100654.38;4952732;28;20290;-72
2023/05/06 11:12:19;;;;;;;;;;;;;;;20.30;48.45;100655.63;4952512;28;20298;-73
2023/05/06 11:15:39;;;;;;;;;;;;;;;20.33;46.25;100640.25;4952864;28;19925;-73
2023/05/06 11:18:43;;;;;;;;;;;;;;;20.31;45.89;100639.53;4952666;28;20345;-74
2023/05/06 11:21:46;;;;;;;;;;;;;;;20.40;45.62;100629.91;4952518;28;19925;-74
2023/05/06 11:24:50;;;;;;;;;;;;;;;20.42;45.56;100630.59;4952554;28;19964;-74
2023/05/06 11:27:54;;;;;;;;;;;;;;;20.41;46.21;100634.22;4952165;29;19997;-74
2023/05/06 11:30:58;;;;;;;;;;;;;;;20.04;44.81;100631.44;4952747;28;19926;-74
2023/05/06 11:34:05;;;;;;;;;;;;;;;20.09;44.72;100624.72;4952367;28;19926;-72
2023/05/06 11:37:09;;;;;;;;;;;;;;;20.31;43.32;100623.63;4952657;28;20017;-73
2023/05/06 11:40:14;;;;;;;;;;;;;;;20.32;43.08;100627.09;4952638;28;19930;-74
2023/05/06 11:43:18;;;;;;;;;;;;;;;20.61;44.19;100629.75;4952319;28;20481;-73
2023/05/06 11:46:22;;;;;;;;;;;;;;;20.17;43.06;100616.91;4951596;28;19980;-73
2023/05/06 11:49:26;;;;;;;;;;;;;;;20.29;43.99;100617.59;4940343;29;19925;-72
2023/05/06 11:52:29;;;;;;;;;;;;;;;20.35;43.84;100618.84;4954169;28;20028;-74
2023/05/06 11:55:34;;;;;;;;;;;;;;;20.34;44.34;100617.19;4943774;28;20298;-74
2023/05/06 11:58:37;;;;;;;;;;;;;;;20.44;44.01;100618.00;4955500;28;19933;-78
2023/05/06 12:01:52;;;;;;;;;;;;;;;20.32;42.78;100611.16;4944044;28;19964;-75
2023/05/06 12:04:56;;;;;;;;;;;;;;;20.39;42.21;100618.44;4953996;28;19969;-75
2023/05/06 12:07:59;;;;;;;;;;;;;;;20.47;41.63;100619.56;4954317;28;19946;-76
2023/05/06 12:11:06;;;;;;;;;;;;;;;20.53;42.80;100617.19;4955275;28;20394;-74
2023/05/06 12:14:15;;;;;;;;;;;;;;;20.41;41.94;100612.97;4955553;28;20411;-74
2023/05/06 12:17:19;;;;;;;;;;;;;;;20.44;41.59;100607.38;4955259;28;19980;-74
2023/05/06 12:20:22;;;;;;;;;;;;;;;20.77;41.82;100607.91;4955185;28;19926;-74
2023/05/06 12:23:25;;;;;;;;;;;;;;;20.49;42.09;100609.63;4955113;28;19971;-73
2023/05/06 12:26:40;;;;;;;;;;;;;;;20.55;42.36;100603.75;4954610;28;19938;-75
2023/05/06 12:29:51;;;;;;;;;;;;;;;20.72;43.76;100604.88;4955024;28;19929;-75
2023/05/06 12:32:58;;;;;;;;;;;;;;;20.89;41.56;100596.13;4954189;28;19980;-76
2023/05/06 12:36:07;;;;;;;;;;;;;;;20.96;41.46;100596.38;4953145;28;19950;-72
2023/05/06 12:39:11;;;;;;;;;;;;;;;21.14;41.63;100600.78;4954567;28;20297;-72
2023/05/06 12:42:18;;;;;;;;;;;;;;;21.07;41.72;100601.53;4954551;28;20020;-72
2023/05/06 12:45:22;;;;;;;;;;;;;;;21.25;40.75;100602.44;4954564;28;20340;-73
2023/05/06 12:48:25;;;;;;;;;;;;;;;21.59;40.13;100586.72;4942701;28;19949;-73
2023/05/06 12:51:29;;;;;;;;;;;;;;;21.94;40.66;100587.72;4954795;28;19930;-72
2023/05/06 12:54:33;;;;;;;;;;;;;;;22.01;39.67;100588.78;4954729;28;19972;-73
2023/05/06 12:57:36;;;;;;;;;;;;;;;22.09;39.04;100587.19;4954630;28;19980;-72
2023/05/06 13:00:39;;;;;;;;;;;;;;;22.40;39.34;100588.50;4954462;28;19941;-72
2023/05/06 13:03:42;;;;;;;;;;;;;;;22.64;38.57;100584.31;4954618;28;19941;-71
2023/05/06 13:06:46;;;;;;;;;;;;;;;22.39;36.98;100586.78;4954207;28;19925;-71
2023/05/06 13:09:48;;;;;;;;;;;;;;;22.41;37.52;100589.31;4954558;28;19929;-72
2023/05/06 13:12:51;;;;;;;;;;;;;;;22.65;36.76;100580.63;4954591;28;20389;-71
2023/05/06 13:15:55;;;;;;;;;;;;;;;22.62;36.37;100579.16;4954368;28;20330;-73
2023/05/06 13:18:59;;;;;;;;;;;;;;;22.86;37.19;100573.09;4954334;28;19968;-72
2023/05/06 13:22:03;;;;;;;;;;;;;;;22.58;36.05;100579.59;4954309;28;19980;-72
2023/05/06 13:25:06;;;;;;;;;;;;;;;22.78;36.50;100575.72;4954244;28;20290;-72
2023/05/06 13:28:09;;;;;;;;;;;;;;;22.27;37.31;100574.72;4934958;29;19976;-72
2023/05/06 13:31:13;;;;;;;;;;;;;;;22.19;36.75;100570.16;4935065;29;20291;-73
2023/05/06 13:34:16;;;;;;;;;;;;;;;22.18;36.68;100568.50;4936619;29;19925;-73
2023/05/06 13:37:19;;;;;;;;;;;;;;;22.22;37.42;100563.69;4954315;28;19926;-74
2023/05/06 13:40:22;;;;;;;;;;;;;;;21.77;37.63;100564.63;4953963;28;19926;-72
2023/05/06 13:43:26;;;;;;;;;;;;;;;21.41;39.24;100564.59;4954203;28;20402;-73
2023/05/06 13:46:29;;;;;;;;;;;;;;;21.40;39.77;100568.22;4953991;28;19969;-72
2023/05/06 13:49:34;;;;;;;;;;;;;;;21.26;38.42;100566.03;4953628;28;19925;-73
2023/05/06 13:52:37;;;;;;;;;;;;;;;21.18;39.13;100558.78;4953805;28;19945;-72
2023/05/06 13:55:40;;;;;;;;;;;;;;;20.90;40.09;100560.63;4953747;28;19925;-70
2023/05/06 13:58:43;;;;;;;;;;;;;;;20.81;40.44;100556.16;4953759;28;20006;-72
2023/05/06 14:01:46;;;;;;;;;;;;;;;20.93;40.05;100557.66;4953677;28;19925;-72
2023/05/06 14:04:48;;;;;;;;;;;;;;;20.85;42.06;100557.53;4953923;28;19965;-72
2023/05/06 14:07:51;;;;;;;;;;;;;;;20.69;44.19;100558.16;4953527;28;19929;-72
2023/05/06 14:10:54;;;;;;;;;;;;;;;20.43;45.83;100563.22;4953273;28;20348;-68
2023/05/06 14:13:57;;;;;;;;;;;;;;;20.30;46.35;100562.69;4953070;28;20405;-72
2023/05/06 14:17:00;;;;;;;;;;;;;;;20.31;45.80;100551.09;4953723;28;20381;-69
2023/05/06 14:20:07;;;;;;;;;;;;;;;20.32;46.36;100558.06;4953544;28;20002;-74
2023/05/06 14:23:12;;;;;;;;;;;;;;;20.42;46.74;100556.22;4951652;28;19926;-70
2023/05/06 14:26:15;;;;;;;;;;;;;;;20.48;46.22;100552.16;4952467;28;19933;-70
2023/05/06 14:29:19;;;;;;;;;;;;;;;20.36;46.78;100554.16;4952997;28;19929;-69
2023/05/06 14:32:21;;;;;;;;;;;;;;;20.36;46.79;100556.81;4952898;28;20440;-71
2023/05/06 14:35:24;;;;;;;;;;;;;;;20.44;46.53;100549.78;4941302;28;20294;-71
2023/05/06 14:38:28;;;;;;;;;;;;;;;20.42;46.15;100545.59;4951911;28;19988;-72
2023/05/06 14:41:31;;;;;;;;;;;;;;;20.21;46.54;100543.97;4951583;28;20290;-70
2023/05/06 14:44:34;;;;;;;;;;;;;;;19.88;47.41;100544.44;4952026;28;19925;-72
2023/05/06 14:47:37;;;;;;;;;;;;;;;19.76;48.44;100542.88;4951967;28;20398;-69
2023/05/06 14:50:58;;;;;;;;;;;;;;;19.77;51.36;100549.88;4952909;28;19925;-89
2023/05/06 14:54:01;;;;;;;;;;;;;;;19.72;49.29;100540.50;4952908;28;20060;-70
2023/05/06 14:57:08;;;;;;;;;;;;;;;19.74;51.31;100533.22;4952774;28;19969;-87
2023/05/06 15:00:13;;;;;;;;;;;;;;;19.70;48.84;100539.81;4952752;28;20294;-69
2023/05/06 15:03:16;;;;;;;;;;;;;;;19.59;47.76;100547.00;4952002;28;19925;-70
2023/05/06 15:06:20;;;;;;;;;;;;;;;19.56;47.93;100547.28;4940782;29;19925;-70
2023/05/06 15:09:23;;;;;;;;;;;;;;;19.44;47.22;100550.06;4952685;28;20345;-70
2023/05/06 15:12:27;;;;;;;;;;;;;;;19.41;46.92;100549.50;4952628;28;19925;-68
2023/05/06 15:15:30;;;;;;;;;;;;;;;19.38;51.29;100563.03;4952597;28;19985;-69
2023/05/06 15:18:33;;;;;;;;;;;;;;;19.25;57.22;100565.94;4952584;28;19961;-68
2023/05/06 15:21:36;;;;;;;;;;;;;;;19.23;60.15;100574.00;4952164;28;19926;-68
2023/05/06 15:24:39;;;;;;;;;;;;;;;19.03;63.12;100567.81;4952487;28;19980;-68
2023/05/06 15:27:43;;;;;;;;;;;;;;;18.75;65.31;100585.25;4951344;28;20017;-69
2023/05/06 15:30:48;;;;;;;;;;;;;;;18.64;68.62;100587.97;4952399;28;19925;-69
2023/05/06 15:33:51;;;;;;;;;;;;;;;18.55;71.68;100586.91;4952449;28;19925;-69
2023/05/06 15:36:54;;;;;;;;;;;;;;;18.51;74.93;100587.31;4952429;28;19965;-69
2023/05/06 15:39:57;;;;;;;;;;;;;;;18.42;76.58;100585.44;4952621;29;19925;-69
2023/05/06 15:43:03;;;;;;;;;;;;;;;18.33;74.52;100582.59;4997940;28;19972;-73
2023/05/06 15:46:07;;;;;;;;;;;;;;;18.26;78.77;100588.53;4945358;28;19925;-69
2023/05/06 15:49:10;;;;;;;;;;;;;;;18.29;79.77;100586.47;4952246;28;19968;-68
2023/05/06 15:52:13;;;;;;;;;;;;;;;18.31;80.17;100592.50;4952532;28;19976;-69
2023/05/06 15:55:16;;;;;;;;;;;;;;;18.07;80.65;100590.06;4952106;28;20029;-68